Aviation Digital Data Service (ADDS)

Output produced by METARs form (0719 UTC 24 March 2019)
found at http://www.aviationweather.gov/metar/data/
 
ESSA 240650Z 26014KT CAVOK 04/M05 Q1015 R01L/19//95 R08/19//95 R01R/0///95 NOSIG
TAF ESSA 240530Z 2406/2506 26013KT CAVOK 
     TEMPO 2410/2415 25015G25KT 
     BECMG 2423/2501 25003KT 
     PROB40 2504/2506 3000 BR BKN006
       
ESNX 240650Z AUTO 26025G38KT 9999 FEW200/// M01/M08 Q0990
ESSD 240650Z AUTO 23011KT 9999 NCD 03/M06 Q1013
ESSB 240650Z AUTO 27011KT 9999 NCD 04/M04 Q1016
ESNG 240650Z AUTO 27019KT 9999 NCD 02/M03 Q0982
ESMT 240650Z AUTO 28015KT 9999 FEW058/// 05/03 Q1024
ESUT 240650Z AUTO 01005KT 320V050 9999 BKN018/// BKN030/// M04/M07 Q0996
ESGJ 240650Z AUTO 25009KT 9999 NCD 02/00 Q1020
ESPA 240650Z 29026G36KT CAVOK 04/M06 Q0987
TAF ESPA 240530Z 2406/2415 27020G33KT CAVOK 
     BECMG 2409/2411 29012G25KT RMK MIL
       
ESMQ 240650Z 26009KT CAVOK 04/01 Q1022
TAF ESMQ 240530Z 2406/2415 25010KT CAVOK
       
ESIA 240650Z AUTO 25006KT 9999 NCD 03/M01 Q1019
ESOK 240650Z AUTO 22010KT 9999 NCD 03/M03 Q1017
ESNQ 240650Z AUTO 31016KT 9999 SCT032/// BKN042/// OVC061/// 02/M02 Q0980
TAF ESNQ 240630Z 2407/2415 30017G27KT CAVOK 
     PROB40 2407/2410 3000 -SHSN SCT030CB
       
ESNK 240650Z AUTO 29014KT 9999 NCD 03/M07 Q1003
ESMK 240650Z AUTO 28008KT 9999 NCD 05/02 Q1025
ESMX 240650Z AUTO 23005KT 200V290 9999 FEW180/// 03/03 Q1022
ESSP 240650Z 27015KT CAVOK 04/M01 Q1018 R27/09//95
TAF ESSP 240530Z 2406/2409 26014G26KT CAVOK
       
ESGG 240650Z 24008KT 9999 BKN009 03/02 Q1022 R88/09//95
TAF AMD ESGG 240644Z 2406/2506 26013KT 9999 BKN009 
     BECMG 2407/2409 BKN015 
     PROB40 2414/2418 4000 -DZ BKN012 
     PROB40 2418/2506 4000 RA BKN006
       
ESTL 240650Z AUTO 27011KT 9999 NCD 05/04 Q1025
ESNL 240650Z AUTO 28013KT 250V310 9999 FEW068/// 00/M08 Q0997
ESCF 240650Z AUTO 25011KT 9999 NCD 03/M01 Q1019
ESKM 240650Z AUTO 22005KT 170V270 9999 NCD 02/M07 Q1011
ESOE 240650Z AUTO 25010G21KT 9999 NCD 04/M01 Q1017
ESNO 240650Z AUTO 27020G32KT 9999 NCD 01/M07 Q1000
TAF ESNO 240630Z 2407/2415 28018G28KT CAVOK
       
ESUP 240650Z AUTO 26014KT 9999 FEW026/// BKN031/// 02/M04 Q0980
ESDF 240650Z AUTO 28005KT 260V320 9999 NCD 03/02 Q1024
TAF COR ESDF 240530Z 2406/2415 28008KT CAVOK 
     BECMG 2412/2415 27010G20KT RMK MIL
       
ESSL 240650Z AUTO 27011KT 9999 NCD 04/M00 Q1019
TAF ESSL 240430Z 2405/2407 26010G20KT CAVOK
       
ESIB 240650Z 21009KT CAVOK 03/02 Q1020
TAF ESIB 240530Z 2406/2415 25012KT CAVOK 
     BECMG 2409/2412 25016G30KT RMK MIL
       
ESKN 240650Z 29014KT CAVOK 04/M03 Q1017 R26/09//95
TAF ESKN 240530Z 2406/2506 29010KT CAVOK 
     BECMG 2411/2413 25015G25KT
       
ESNS 240650Z 26029G39KT CAVOK 02/M07 Q0992
TAF ESNS 240530Z 2406/2415 27025G35KT CAVOK 
     BECMG 2413/2415 28012G25KT
       
ESGR 240650Z AUTO 25008KT 220V280 9999 NCD 04/M00 Q1020
ESMS 240650Z 28008KT 9999 SCT008 04/03 Q1025
TAF ESMS 240454Z 2406/2506 29010KT 9999 SCT018 
     BECMG 2500/2502 4000 RA BKN008 SCT020CB 
     BECMG 2502/2504 9999 NSW SCT020
       
ESNN 240650Z AUTO 27011KT 9999 NCD 03/M07 Q1006
ESND 240650Z AUTO 25007KT 200V300 9999 NCD 00/M08 Q1008
ESST 240650Z AUTO 25006KT 230V300 9999 NCD 03/M05 Q1015
ESGT 240650Z AUTO 23009KT 9999 NCD 04/01 Q1021
ESNU 240650Z 27022G33KT CAVOK 02/M06 Q0997 R14/09//95
TAF ESNU 240530Z 2406/2415 28016G30KT CAVOK
       
ESCM 240650Z AUTO 26011KT 9999 NCD 04/M05 Q1015
TAF ESCM 240230Z 2403/2405 26015KT CAVOK RMK MIL
       
ESOW 240650Z AUTO 26009KT 210V290 9999 NCD 04/M05 Q1016
ESPE 240650Z 28020G31KT CAVOK 01/M07 Q0988
TAF ESPE 240530Z 2406/2415 27020G35KT 9999 FEW040 
     BECMG 2410/2412 29012G28KT RMK MIL
       
ESNV 240650Z AUTO 27018KT 9999 NCD M01/M07 Q0998
ESSV 240650Z AUTO 26010KT 9999 NCD 03/M00 Q1019
TAF ESSV 240530Z 2406/2415 24013G25KT CAVOK